Ana Sayfa
METAR-TAF:

METAR-TAF

Havaalanları :

Bobby L. Chain Municipal Airport

Hattiesburg, Mississipi, Amerika Birleşik Devletleri

Enlem: 31-15-54N, Boylam: 089-15-11W, yükseklik: 46 m

Güncel hava durumu gözlemi

Rapor saat 16:53 UTC de 50 dakika önce yapıldı.
Rüzgar değişken yönden 4 kt
Sıcaklık 34°C
Nem 53%
Basınç 1015 hPa
Görüş mesafesi: 16.1 km
Açık gökyüzü

METAR: KHBG 251653Z AUTO VRB04KT 10SM CLR 34/23 A2998 RMK AO2 SLP148 T03440233

Saat: 12:43 (17:43 UTC)

Tahmin

Rapor saat 11:21 UTC de 6 saat ve 22 dakika önce yapıldı.
Ayın 25'si saat 12 UTC'den ayın 26'si saat 12 UTC'ye kadar geçerli Tahmin
Rüzgar batı/kuzeybatıdan 4 kt
Görüş mesafesi: 10 km
6000 ft yükseklikte parçalı bulutlu

TAF: KHBG 251121Z 2512/2612 29004KT P6SM SCT060

4.000'den fazla havaalanı için hava durumu gözlemleri ve tahminleri (METAR ve TAF raporları).

Kullanılabilir istasyonlar harita üzerinde sarı ve kırmızı noktalarla gösterilir.

İstasyonun adını görmek için fareyi noktanın üzerinde gezdirin.

Sonrasında hava gözlem ve tahminlerini görmek için tıklayın.

Haritayı değiştirmek için: yaklaştırmak için siyah artı işaretli yeşil düğmeye ve uzaklaştırmak için de eksi işaretli düğmeye hızla tıklayın; bitişik haritalar için yeşil okları kullanın.


METAR-TAF: